White, Minnesota
Current Conditions -  °F | °C
As of 6:51 AM on Tuesday 21 Oct 2014 (Local Time) from KEVM Reporting Station
Overcast Overcast  
Wind Chill: 36°   Ceiling: 1800
Heat Index: 39°   Visibility: 10mi
Dew Point: 34°   Wind: 5mph
Humidity: 81%   Direction: 130°SE
Pressure: 30.21"   Gusts: NA
Location:  47.4622°N, 92.1946°W
Report Text: KEVM 211151Z AUTO 13004KT 10SM OVC018 04/01 A3021 RMK AO2
Loading
Personal Weather Stations






























Interactive Weather Map
Tropical Storm Tracking
New forecast layout! Learn more

10-Day Weather Forecast

Advertisements
Track Severe Weather on mobile